sensor_id;sensor_type;location;lat;lon;timestamp;P1;durP1;ratioP1;P2;durP2;ratioP2
14611;SDS011;7392;52.078;11.650;2022-10-28T00:01:01;5.07;;;4.47;;
14611;SDS011;7392;52.078;11.650;2022-10-28T00:03:29;4.67;;;3.70;;
14611;SDS011;7392;52.078;11.650;2022-10-28T00:06:01;5.40;;;4.37;;
14611;SDS011;7392;52.078;11.650;2022-10-28T00:08:30;4.57;;;3.60;;
14611;SDS011;7392;52.078;11.650;2022-10-28T00:11:04;6.33;;;4.00;;
14611;SDS011;7392;52.078;11.650;2022-10-28T00:13:33;4.60;;;3.90;;
14611;SDS011;7392;52.078;11.650;2022-10-28T00:16:02;6.13;;;4.13;;
14611;SDS011;7392;52.078;11.650;2022-10-28T00:18:34;4.50;;;3.93;;
14611;SDS011;7392;52.078;11.650;2022-10-28T00:21:03;6.03;;;3.70;;
14611;SDS011;7392;52.078;11.650;2022-10-28T00:23:33;5.23;;;3.60;;
14611;SDS011;7392;52.078;11.650;2022-10-28T00:26:07;6.27;;;4.17;;
14611;SDS011;7392;52.078;11.650;2022-10-28T00:28:39;6.13;;;4.07;;
14611;SDS011;7392;52.078;11.650;2022-10-28T00:31:08;6.23;;;4.10;;
14611;SDS011;7392;52.078;11.650;2022-10-28T00:33:37;6.27;;;4.00;;
14611;SDS011;7392;52.078;11.650;2022-10-28T00:36:09;5.00;;;3.40;;
14611;SDS011;7392;52.078;11.650;2022-10-28T00:38:39;5.43;;;3.97;;
14611;SDS011;7392;52.078;11.650;2022-10-28T00:41:09;6.90;;;4.40;;
14611;SDS011;7392;52.078;11.650;2022-10-28T00:43:40;7.30;;;4.50;;
14611;SDS011;7392;52.078;11.650;2022-10-28T00:46:12;7.13;;;4.53;;
14611;SDS011;7392;52.078;11.650;2022-10-28T00:48:45;4.60;;;4.07;;
14611;SDS011;7392;52.078;11.650;2022-10-28T00:51:15;5.57;;;3.60;;
14611;SDS011;7392;52.078;11.650;2022-10-28T00:53:44;6.30;;;3.50;;
14611;SDS011;7392;52.078;11.650;2022-10-28T00:56:16;3.97;;;3.23;;
14611;SDS011;7392;52.078;11.650;2022-10-28T00:58:45;5.07;;;3.50;;
14611;SDS011;7392;52.078;11.650;2022-10-28T01:01:15;3.43;;;3.10;;
14611;SDS011;7392;52.078;11.650;2022-10-28T01:03:43;5.00;;;3.60;;
14611;SDS011;7392;52.078;11.650;2022-10-28T01:06:11;5.37;;;3.97;;
14611;SDS011;7392;52.078;11.650;2022-10-28T01:08:40;6.50;;;3.90;;
14611;SDS011;7392;52.078;11.650;2022-10-28T01:11:25;6.83;;;4.47;;
14611;SDS011;7392;52.078;11.650;2022-10-28T01:17:02;5.07;;;3.87;;
14611;SDS011;7392;52.078;11.650;2022-10-28T01:19:47;4.57;;;3.80;;
14611;SDS011;7392;52.078;11.650;2022-10-28T01:22:31;5.83;;;3.83;;
14611;SDS011;7392;52.078;11.650;2022-10-28T01:25:11;6.23;;;4.00;;
14611;SDS011;7392;52.078;11.650;2022-10-28T01:34:00;7.27;;;4.40;;
14611;SDS011;7392;52.078;11.650;2022-10-28T01:36:37;6.00;;;4.37;;
14611;SDS011;7392;52.078;11.650;2022-10-28T01:39:12;7.13;;;4.63;;
14611;SDS011;7392;52.078;11.650;2022-10-28T01:41:50;8.03;;;4.57;;
14611;SDS011;7392;52.078;11.650;2022-10-28T01:44:23;5.57;;;4.63;;
14611;SDS011;7392;52.078;11.650;2022-10-28T01:46:58;7.20;;;4.90;;
14611;SDS011;7392;52.078;11.650;2022-10-28T01:49:32;8.73;;;4.90;;
14611;SDS011;7392;52.078;11.650;2022-10-28T01:52:08;5.27;;;4.40;;
14611;SDS011;7392;52.078;11.650;2022-10-28T01:54:40;6.77;;;4.87;;
14611;SDS011;7392;52.078;11.650;2022-10-28T01:57:12;6.70;;;5.00;;
14611;SDS011;7392;52.078;11.650;2022-10-28T01:59:42;8.57;;;5.50;;
14611;SDS011;7392;52.078;11.650;2022-10-28T02:02:13;7.37;;;5.27;;
14611;SDS011;7392;52.078;11.650;2022-10-28T02:04:43;8.63;;;4.73;;
14611;SDS011;7392;52.078;11.650;2022-10-28T02:07:10;8.17;;;4.73;;
14611;SDS011;7392;52.078;11.650;2022-10-28T02:09:43;8.37;;;4.93;;
14611;SDS011;7392;52.078;11.650;2022-10-28T02:12:29;7.43;;;4.73;;
14611;SDS011;7392;52.078;11.650;2022-10-28T02:15:20;6.63;;;4.60;;
14611;SDS011;7392;52.078;11.650;2022-10-28T02:18:01;7.70;;;4.83;;
14611;SDS011;7392;52.078;11.650;2022-10-28T02:20:42;6.47;;;4.50;;
14611;SDS011;7392;52.078;11.650;2022-10-28T02:23:16;8.13;;;5.53;;
14611;SDS011;7392;52.078;11.650;2022-10-28T02:25:51;8.27;;;5.23;;
14611;SDS011;7392;52.078;11.650;2022-10-28T02:28:23;5.47;;;4.23;;
14611;SDS011;7392;52.078;11.650;2022-10-28T02:30:59;8.80;;;4.93;;
14611;SDS011;7392;52.078;11.650;2022-10-28T02:33:33;8.90;;;5.60;;
14611;SDS011;7392;52.078;11.650;2022-10-28T02:36:06;7.07;;;4.80;;
14611;SDS011;7392;52.078;11.650;2022-10-28T02:38:38;6.43;;;4.53;;
14611;SDS011;7392;52.078;11.650;2022-10-28T02:41:11;10.27;;;5.67;;
14611;SDS011;7392;52.078;11.650;2022-10-28T02:43:43;9.07;;;5.10;;
14611;SDS011;7392;52.078;11.650;2022-10-28T02:46:14;5.97;;;4.77;;
14611;SDS011;7392;52.078;11.650;2022-10-28T02:48:45;6.33;;;4.30;;
14611;SDS011;7392;52.078;11.650;2022-10-28T02:51:17;5.30;;;3.60;;
14611;SDS011;7392;52.078;11.650;2022-10-28T02:53:51;3.80;;;3.17;;
14611;SDS011;7392;52.078;11.650;2022-10-28T02:56:25;4.37;;;3.13;;
14611;SDS011;7392;52.078;11.650;2022-10-28T02:58:56;6.63;;;3.20;;
14611;SDS011;7392;52.078;11.650;2022-10-28T03:01:24;3.97;;;2.73;;
14611;SDS011;7392;52.078;11.650;2022-10-28T03:03:52;4.13;;;3.00;;
14611;SDS011;7392;52.078;11.650;2022-10-28T03:06:21;2.60;;;2.40;;
14611;SDS011;7392;52.078;11.650;2022-10-28T03:08:54;2.50;;;2.20;;
14611;SDS011;7392;52.078;11.650;2022-10-28T03:11:22;1.87;;;1.77;;
14611;SDS011;7392;52.078;11.650;2022-10-28T03:13:50;2.70;;;1.90;;
14611;SDS011;7392;52.078;11.650;2022-10-28T03:16:18;2.43;;;2.10;;
14611;SDS011;7392;52.078;11.650;2022-10-28T03:18:45;1.90;;;1.80;;
14611;SDS011;7392;52.078;11.650;2022-10-28T03:21:13;2.73;;;1.70;;
14611;SDS011;7392;52.078;11.650;2022-10-28T03:23:42;1.83;;;1.70;;
14611;SDS011;7392;52.078;11.650;2022-10-28T03:26:10;2.13;;;1.90;;
14611;SDS011;7392;52.078;11.650;2022-10-28T03:28:39;2.30;;;2.10;;
14611;SDS011;7392;52.078;11.650;2022-10-28T03:31:06;2.00;;;1.80;;
14611;SDS011;7392;52.078;11.650;2022-10-28T03:33:34;2.40;;;2.00;;
14611;SDS011;7392;52.078;11.650;2022-10-28T03:36:02;2.63;;;1.97;;
14611;SDS011;7392;52.078;11.650;2022-10-28T03:38:31;2.00;;;1.80;;
14611;SDS011;7392;52.078;11.650;2022-10-28T03:41:00;2.13;;;1.70;;
14611;SDS011;7392;52.078;11.650;2022-10-28T03:43:29;1.90;;;1.70;;
14611;SDS011;7392;52.078;11.650;2022-10-28T03:45:56;2.27;;;1.63;;
14611;SDS011;7392;52.078;11.650;2022-10-28T03:48:24;2.47;;;1.53;;
14611;SDS011;7392;52.078;11.650;2022-10-28T03:50:52;2.20;;;2.00;;
14611;SDS011;7392;52.078;11.650;2022-10-28T03:53:20;1.90;;;1.67;;
14611;SDS011;7392;52.078;11.650;2022-10-28T03:55:54;2.40;;;1.53;;
14611;SDS011;7392;52.078;11.650;2022-10-28T03:58:25;2.10;;;1.90;;
14611;SDS011;7392;52.078;11.650;2022-10-28T04:00:53;2.70;;;1.80;;
14611;SDS011;7392;52.078;11.650;2022-10-28T04:03:22;2.03;;;1.67;;
14611;SDS011;7392;52.078;11.650;2022-10-28T04:05:51;2.83;;;2.30;;
14611;SDS011;7392;52.078;11.650;2022-10-28T04:08:19;2.03;;;1.70;;
14611;SDS011;7392;52.078;11.650;2022-10-28T04:10:47;1.83;;;1.70;;
14611;SDS011;7392;52.078;11.650;2022-10-28T04:13:16;2.23;;;1.90;;
14611;SDS011;7392;52.078;11.650;2022-10-28T04:15:45;3.00;;;2.23;;
14611;SDS011;7392;52.078;11.650;2022-10-28T04:18:13;3.63;;;2.67;;
14611;SDS011;7392;52.078;11.650;2022-10-28T04:20:41;2.57;;;2.37;;
14611;SDS011;7392;52.078;11.650;2022-10-28T04:23:13;2.03;;;1.83;;
14611;SDS011;7392;52.078;11.650;2022-10-28T04:25:43;2.50;;;2.30;;
14611;SDS011;7392;52.078;11.650;2022-10-28T04:28:11;2.80;;;2.50;;
14611;SDS011;7392;52.078;11.650;2022-10-28T04:30:39;2.90;;;2.60;;
14611;SDS011;7392;52.078;11.650;2022-10-28T04:33:08;3.07;;;2.40;;
14611;SDS011;7392;52.078;11.650;2022-10-28T04:35:38;3.60;;;3.03;;
14611;SDS011;7392;52.078;11.650;2022-10-28T04:38:08;3.43;;;3.10;;
14611;SDS011;7392;52.078;11.650;2022-10-28T04:40:36;3.13;;;2.63;;
14611;SDS011;7392;52.078;11.650;2022-10-28T04:43:04;2.90;;;2.60;;
14611;SDS011;7392;52.078;11.650;2022-10-28T04:45:35;2.70;;;2.50;;
14611;SDS011;7392;52.078;11.650;2022-10-28T04:48:04;2.80;;;2.60;;
14611;SDS011;7392;52.078;11.650;2022-10-28T04:50:33;3.23;;;2.93;;
14611;SDS011;7392;52.078;11.650;2022-10-28T04:53:08;3.97;;;3.30;;
14611;SDS011;7392;52.078;11.650;2022-10-28T04:55:36;3.80;;;3.40;;
14611;SDS011;7392;52.078;11.650;2022-10-28T04:58:04;3.63;;;3.33;;
14611;SDS011;7392;52.078;11.650;2022-10-28T05:00:32;5.00;;;3.27;;
14611;SDS011;7392;52.078;11.650;2022-10-28T05:03:00;2.87;;;2.63;;
14611;SDS011;7392;52.078;11.650;2022-10-28T05:05:28;4.13;;;3.73;;
14611;SDS011;7392;52.078;11.650;2022-10-28T05:07:58;5.07;;;3.67;;
14611;SDS011;7392;52.078;11.650;2022-10-28T05:10:25;4.27;;;3.77;;
14611;SDS011;7392;52.078;11.650;2022-10-28T05:12:53;5.07;;;4.13;;
14611;SDS011;7392;52.078;11.650;2022-10-28T05:15:21;7.90;;;4.43;;
14611;SDS011;7392;52.078;11.650;2022-10-28T05:17:49;6.03;;;4.40;;
14611;SDS011;7392;52.078;11.650;2022-10-28T05:20:18;6.13;;;3.90;;
14611;SDS011;7392;52.078;11.650;2022-10-28T05:22:47;5.00;;;3.70;;
14611;SDS011;7392;52.078;11.650;2022-10-28T05:25:20;4.50;;;3.73;;
14611;SDS011;7392;52.078;11.650;2022-10-28T05:27:48;4.80;;;3.50;;
14611;SDS011;7392;52.078;11.650;2022-10-28T05:30:16;6.30;;;3.93;;
14611;SDS011;7392;52.078;11.650;2022-10-28T05:32:44;5.80;;;4.10;;
14611;SDS011;7392;52.078;11.650;2022-10-28T05:35:16;6.37;;;4.03;;
14611;SDS011;7392;52.078;11.650;2022-10-28T05:37:44;6.20;;;4.20;;
14611;SDS011;7392;52.078;11.650;2022-10-28T05:40:12;7.30;;;5.03;;
14611;SDS011;7392;52.078;11.650;2022-10-28T05:42:41;6.63;;;4.33;;
14611;SDS011;7392;52.078;11.650;2022-10-28T05:45:10;5.10;;;3.80;;
14611;SDS011;7392;52.078;11.650;2022-10-28T05:47:40;4.23;;;3.50;;
14611;SDS011;7392;52.078;11.650;2022-10-28T05:50:09;5.93;;;3.60;;
14611;SDS011;7392;52.078;11.650;2022-10-28T05:52:37;5.37;;;3.17;;
14611;SDS011;7392;52.078;11.650;2022-10-28T05:55:05;3.90;;;3.07;;
14611;SDS011;7392;52.078;11.650;2022-10-28T05:57:33;4.40;;;3.40;;
14611;SDS011;7392;52.078;11.650;2022-10-28T06:00:02;4.87;;;2.93;;
14611;SDS011;7392;52.078;11.650;2022-10-28T06:02:37;4.53;;;3.17;;
14611;SDS011;7392;52.078;11.650;2022-10-28T06:05:05;6.17;;;3.53;;
14611;SDS011;7392;52.078;11.650;2022-10-28T06:07:33;6.43;;;3.53;;
14611;SDS011;7392;52.078;11.650;2022-10-28T06:10:02;4.40;;;3.07;;
14611;SDS011;7392;52.078;11.650;2022-10-28T06:12:30;3.50;;;3.20;;
14611;SDS011;7392;52.078;11.650;2022-10-28T06:14:58;3.90;;;2.57;;
14611;SDS011;7392;52.078;11.650;2022-10-28T06:17:28;3.50;;;2.80;;
14611;SDS011;7392;52.078;11.650;2022-10-28T06:19:56;3.50;;;2.80;;
14611;SDS011;7392;52.078;11.650;2022-10-28T06:22:23;4.90;;;3.20;;
14611;SDS011;7392;52.078;11.650;2022-10-28T06:24:51;10.30;;;6.13;;
14611;SDS011;7392;52.078;11.650;2022-10-28T06:27:19;11.50;;;7.30;;
14611;SDS011;7392;52.078;11.650;2022-10-28T06:29:47;11.00;;;7.17;;
14611;SDS011;7392;52.078;11.650;2022-10-28T06:32:14;8.17;;;6.43;;
14611;SDS011;7392;52.078;11.650;2022-10-28T06:34:44;9.43;;;5.27;;
14611;SDS011;7392;52.078;11.650;2022-10-28T06:37:12;9.23;;;5.10;;
14611;SDS011;7392;52.078;11.650;2022-10-28T06:39:39;6.43;;;4.23;;
14611;SDS011;7392;52.078;11.650;2022-10-28T06:42:08;6.60;;;4.43;;
14611;SDS011;7392;52.078;11.650;2022-10-28T06:44:36;9.37;;;5.53;;
14611;SDS011;7392;52.078;11.650;2022-10-28T06:47:04;8.00;;;4.43;;
14611;SDS011;7392;52.078;11.650;2022-10-28T06:49:32;4.43;;;3.80;;
14611;SDS011;7392;52.078;11.650;2022-10-28T06:52:01;5.30;;;3.60;;
14611;SDS011;7392;52.078;11.650;2022-10-28T06:54:29;4.47;;;4.00;;
14611;SDS011;7392;52.078;11.650;2022-10-28T06:56:57;4.83;;;3.90;;
14611;SDS011;7392;52.078;11.650;2022-10-28T06:59:25;5.13;;;3.40;;
14611;SDS011;7392;52.078;11.650;2022-10-28T07:01:52;3.67;;;3.20;;
14611;SDS011;7392;52.078;11.650;2022-10-28T07:04:20;2.63;;;2.40;;
14611;SDS011;7392;52.078;11.650;2022-10-28T07:06:48;4.83;;;3.57;;
14611;SDS011;7392;52.078;11.650;2022-10-28T07:09:22;6.77;;;4.20;;
14611;SDS011;7392;52.078;11.650;2022-10-28T07:11:50;7.20;;;4.47;;
14611;SDS011;7392;52.078;11.650;2022-10-28T07:14:20;3.63;;;3.20;;
14611;SDS011;7392;52.078;11.650;2022-10-28T07:16:48;4.87;;;3.60;;
14611;SDS011;7392;52.078;11.650;2022-10-28T07:19:16;6.17;;;4.40;;
14611;SDS011;7392;52.078;11.650;2022-10-28T07:21:48;5.67;;;3.70;;
14611;SDS011;7392;52.078;11.650;2022-10-28T07:24:15;5.90;;;4.07;;
14611;SDS011;7392;52.078;11.650;2022-10-28T07:26:45;5.03;;;4.40;;
14611;SDS011;7392;52.078;11.650;2022-10-28T07:29:13;5.73;;;4.53;;
14611;SDS011;7392;52.078;11.650;2022-10-28T07:31:42;8.20;;;5.30;;
14611;SDS011;7392;52.078;11.650;2022-10-28T07:34:10;7.97;;;5.17;;
14611;SDS011;7392;52.078;11.650;2022-10-28T07:36:37;9.57;;;4.80;;
14611;SDS011;7392;52.078;11.650;2022-10-28T07:39:05;10.60;;;4.23;;
14611;SDS011;7392;52.078;11.650;2022-10-28T07:41:33;5.90;;;4.30;;
14611;SDS011;7392;52.078;11.650;2022-10-28T07:44:05;7.33;;;5.03;;
14611;SDS011;7392;52.078;11.650;2022-10-28T07:46:33;7.37;;;5.00;;
14611;SDS011;7392;52.078;11.650;2022-10-28T07:49:01;9.77;;;5.60;;
14611;SDS011;7392;52.078;11.650;2022-10-28T07:51:29;8.00;;;4.57;;
14611;SDS011;7392;52.078;11.650;2022-10-28T07:53:57;6.40;;;4.53;;
14611;SDS011;7392;52.078;11.650;2022-10-28T07:56:25;5.83;;;4.43;;
14611;SDS011;7392;52.078;11.650;2022-10-28T07:58:53;9.83;;;4.93;;
14611;SDS011;7392;52.078;11.650;2022-10-28T08:01:22;7.13;;;4.90;;
14611;SDS011;7392;52.078;11.650;2022-10-28T08:03:50;8.33;;;5.40;;
14611;SDS011;7392;52.078;11.650;2022-10-28T08:06:19;13.17;;;5.10;;
14611;SDS011;7392;52.078;11.650;2022-10-28T08:08:51;9.23;;;5.07;;
14611;SDS011;7392;52.078;11.650;2022-10-28T08:11:20;9.50;;;4.57;;
14611;SDS011;7392;52.078;11.650;2022-10-28T08:13:50;8.90;;;4.80;;
14611;SDS011;7392;52.078;11.650;2022-10-28T08:16:18;5.90;;;4.20;;
14611;SDS011;7392;52.078;11.650;2022-10-28T08:18:48;8.70;;;4.10;;
14611;SDS011;7392;52.078;11.650;2022-10-28T08:21:15;6.60;;;3.87;;
14611;SDS011;7392;52.078;11.650;2022-10-28T08:23:43;6.90;;;4.30;;
14611;SDS011;7392;52.078;11.650;2022-10-28T08:26:12;10.17;;;4.43;;
14611;SDS011;7392;52.078;11.650;2022-10-28T08:28:41;7.77;;;4.40;;
14611;SDS011;7392;52.078;11.650;2022-10-28T08:31:09;6.87;;;3.83;;
14611;SDS011;7392;52.078;11.650;2022-10-28T08:33:38;7.33;;;4.10;;
14611;SDS011;7392;52.078;11.650;2022-10-28T08:36:09;6.43;;;4.23;;
14611;SDS011;7392;52.078;11.650;2022-10-28T08:38:38;4.30;;;3.57;;
14611;SDS011;7392;52.078;11.650;2022-10-28T08:41:23;5.70;;;3.73;;
14611;SDS011;7392;52.078;11.650;2022-10-28T08:44:00;5.80;;;3.93;;
14611;SDS011;7392;52.078;11.650;2022-10-28T08:46:50;8.10;;;3.80;;
14611;SDS011;7392;52.078;11.650;2022-10-28T08:49:28;8.33;;;3.83;;
14611;SDS011;7392;52.078;11.650;2022-10-28T08:51:59;6.63;;;3.77;;
14611;SDS011;7392;52.078;11.650;2022-10-28T08:54:33;6.80;;;3.77;;
14611;SDS011;7392;52.078;11.650;2022-10-28T08:57:05;8.03;;;4.40;;
14611;SDS011;7392;52.078;11.650;2022-10-28T08:59:43;6.37;;;4.00;;
14611;SDS011;7392;52.078;11.650;2022-10-28T09:02:17;3.57;;;2.80;;
14611;SDS011;7392;52.078;11.650;2022-10-28T09:04:48;5.17;;;3.80;;
14611;SDS011;7392;52.078;11.650;2022-10-28T09:07:23;6.63;;;3.60;;
14611;SDS011;7392;52.078;11.650;2022-10-28T09:09:51;8.67;;;4.90;;
14611;SDS011;7392;52.078;11.650;2022-10-28T09:12:27;6.70;;;3.70;;
14611;SDS011;7392;52.078;11.650;2022-10-28T09:15:19;7.43;;;3.57;;
14611;SDS011;7392;52.078;11.650;2022-10-28T09:17:56;6.83;;;3.60;;
14611;SDS011;7392;52.078;11.650;2022-10-28T09:20:43;5.10;;;3.30;;
14611;SDS011;7392;52.078;11.650;2022-10-28T09:23:21;5.13;;;3.53;;
14611;SDS011;7392;52.078;11.650;2022-10-28T09:25:56;7.23;;;4.03;;
14611;SDS011;7392;52.078;11.650;2022-10-28T09:28:36;6.77;;;3.80;;
14611;SDS011;7392;52.078;11.650;2022-10-28T09:31:19;7.40;;;3.80;;
14611;SDS011;7392;52.078;11.650;2022-10-28T09:33:57;10.87;;;4.37;;
14611;SDS011;7392;52.078;11.650;2022-10-28T09:36:35;7.00;;;3.93;;
14611;SDS011;7392;52.078;11.650;2022-10-28T09:39:10;10.20;;;3.63;;
14611;SDS011;7392;52.078;11.650;2022-10-28T09:41:43;10.63;;;4.33;;
14611;SDS011;7392;52.078;11.650;2022-10-28T09:44:14;6.93;;;4.17;;
14611;SDS011;7392;52.078;11.650;2022-10-28T09:46:48;6.90;;;3.50;;
14611;SDS011;7392;52.078;11.650;2022-10-28T09:49:21;10.57;;;3.80;;
14611;SDS011;7392;52.078;11.650;2022-10-28T09:51:54;7.13;;;3.57;;
14611;SDS011;7392;52.078;11.650;2022-10-28T09:54:29;8.00;;;4.00;;
14611;SDS011;7392;52.078;11.650;2022-10-28T09:57:00;6.57;;;3.77;;
14611;SDS011;7392;52.078;11.650;2022-10-28T09:59:30;8.43;;;3.77;;
14611;SDS011;7392;52.078;11.650;2022-10-28T10:01:58;5.93;;;3.63;;
14611;SDS011;7392;52.078;11.650;2022-10-28T10:04:26;9.40;;;3.60;;
14611;SDS011;7392;52.078;11.650;2022-10-28T10:06:57;7.17;;;3.67;;
14611;SDS011;7392;52.078;11.650;2022-10-28T10:09:31;8.97;;;3.60;;
14611;SDS011;7392;52.078;11.650;2022-10-28T10:12:01;8.10;;;3.80;;
14611;SDS011;7392;52.078;11.650;2022-10-28T10:14:34;8.30;;;3.80;;
14611;SDS011;7392;52.078;11.650;2022-10-28T10:17:09;6.57;;;3.40;;
14611;SDS011;7392;52.078;11.650;2022-10-28T10:19:59;11.77;;;4.43;;
14611;SDS011;7392;52.078;11.650;2022-10-28T10:22:29;7.57;;;3.30;;
14611;SDS011;7392;52.078;11.650;2022-10-28T10:25:00;5.73;;;3.03;;
14611;SDS011;7392;52.078;11.650;2022-10-28T10:27:28;6.10;;;3.53;;
14611;SDS011;7392;52.078;11.650;2022-10-28T10:29:57;8.30;;;3.53;;
14611;SDS011;7392;52.078;11.650;2022-10-28T10:32:26;4.67;;;2.93;;
14611;SDS011;7392;52.078;11.650;2022-10-28T10:34:58;4.67;;;2.90;;
14611;SDS011;7392;52.078;11.650;2022-10-28T10:37:28;5.10;;;2.70;;
14611;SDS011;7392;52.078;11.650;2022-10-28T10:40:05;6.30;;;3.07;;
14611;SDS011;7392;52.078;11.650;2022-10-28T10:42:42;5.77;;;3.07;;
14611;SDS011;7392;52.078;11.650;2022-10-28T10:45:30;6.70;;;3.30;;
14611;SDS011;7392;52.078;11.650;2022-10-28T10:48:05;6.07;;;3.20;;
14611;SDS011;7392;52.078;11.650;2022-10-28T10:50:38;6.90;;;3.40;;
14611;SDS011;7392;52.078;11.650;2022-10-28T10:53:14;11.47;;;3.47;;
14611;SDS011;7392;52.078;11.650;2022-10-28T10:55:49;8.13;;;3.53;;
14611;SDS011;7392;52.078;11.650;2022-10-28T10:58:20;6.97;;;3.27;;
14611;SDS011;7392;52.078;11.650;2022-10-28T11:00:51;8.77;;;3.40;;
14611;SDS011;7392;52.078;11.650;2022-10-28T11:03:22;4.57;;;2.90;;
14611;SDS011;7392;52.078;11.650;2022-10-28T11:05:54;5.03;;;2.43;;
14611;SDS011;7392;52.078;11.650;2022-10-28T11:08:43;3.57;;;2.60;;
14611;SDS011;7392;52.078;11.650;2022-10-28T11:11:13;5.17;;;2.33;;
14611;SDS011;7392;52.078;11.650;2022-10-28T11:13:47;5.83;;;2.80;;
14611;SDS011;7392;52.078;11.650;2022-10-28T11:16:28;5.40;;;2.83;;
14611;SDS011;7392;52.078;11.650;2022-10-28T11:18:56;5.80;;;3.17;;
14611;SDS011;7392;52.078;11.650;2022-10-28T11:21:26;6.00;;;3.30;;
14611;SDS011;7392;52.078;11.650;2022-10-28T11:24:29;5.07;;;3.20;;
14611;SDS011;7392;52.078;11.650;2022-10-28T11:27:13;5.03;;;3.17;;
14611;SDS011;7392;52.078;11.650;2022-10-28T11:29:46;4.93;;;2.50;;
14611;SDS011;7392;52.078;11.650;2022-10-28T11:32:17;6.90;;;2.73;;
14611;SDS011;7392;52.078;11.650;2022-10-28T11:35:02;3.90;;;2.60;;
14611;SDS011;7392;52.078;11.650;2022-10-28T11:37:51;6.73;;;3.23;;
14611;SDS011;7392;52.078;11.650;2022-10-28T11:40:36;3.40;;;2.57;;
14611;SDS011;7392;52.078;11.650;2022-10-28T11:43:19;6.33;;;2.70;;
14611;SDS011;7392;52.078;11.650;2022-10-28T11:45:58;6.30;;;2.70;;
14611;SDS011;7392;52.078;11.650;2022-10-28T11:48:43;8.10;;;3.40;;
14611;SDS011;7392;52.078;11.650;2022-10-28T11:51:30;6.40;;;2.83;;
14611;SDS011;7392;52.078;11.650;2022-10-28T11:54:13;9.20;;;3.60;;
14611;SDS011;7392;52.078;11.650;2022-10-28T11:56:54;6.67;;;3.33;;
14611;SDS011;7392;52.078;11.650;2022-10-28T11:59:32;7.90;;;3.40;;
14611;SDS011;7392;52.078;11.650;2022-10-28T12:02:25;10.10;;;3.83;;
14611;SDS011;7392;52.078;11.650;2022-10-28T12:05:33;7.27;;;3.10;;
14611;SDS011;7392;52.078;11.650;2022-10-28T12:08:15;12.23;;;4.53;;
14611;SDS011;7392;52.078;11.650;2022-10-28T12:10:59;7.93;;;3.63;;
14611;SDS011;7392;52.078;11.650;2022-10-28T12:13:38;6.67;;;3.50;;
14611;SDS011;7392;52.078;11.650;2022-10-28T12:16:13;6.17;;;3.27;;
14611;SDS011;7392;52.078;11.650;2022-10-28T12:18:49;6.50;;;3.27;;
14611;SDS011;7392;52.078;11.650;2022-10-28T12:21:24;4.17;;;2.63;;
14611;SDS011;7392;52.078;11.650;2022-10-28T12:23:57;7.00;;;3.33;;
14611;SDS011;7392;52.078;11.650;2022-10-28T12:26:31;6.53;;;3.10;;
14611;SDS011;7392;52.078;11.650;2022-10-28T12:29:05;8.77;;;2.87;;
14611;SDS011;7392;52.078;11.650;2022-10-28T12:31:46;6.40;;;3.07;;
14611;SDS011;7392;52.078;11.650;2022-10-28T12:34:17;7.67;;;3.23;;
14611;SDS011;7392;52.078;11.650;2022-10-28T12:36:52;9.60;;;3.17;;
14611;SDS011;7392;52.078;11.650;2022-10-28T12:39:26;6.07;;;2.83;;
14611;SDS011;7392;52.078;11.650;2022-10-28T12:42:02;8.30;;;2.97;;
14611;SDS011;7392;52.078;11.650;2022-10-28T12:44:35;9.37;;;3.23;;
14611;SDS011;7392;52.078;11.650;2022-10-28T12:47:11;5.33;;;2.90;;
14611;SDS011;7392;52.078;11.650;2022-10-28T12:49:52;6.43;;;3.10;;
14611;SDS011;7392;52.078;11.650;2022-10-28T12:52:33;8.00;;;3.30;;
14611;SDS011;7392;52.078;11.650;2022-10-28T12:55:15;4.60;;;2.93;;
14611;SDS011;7392;52.078;11.650;2022-10-28T12:57:52;6.57;;;3.13;;
14611;SDS011;7392;52.078;11.650;2022-10-28T13:00:25;6.57;;;3.17;;
14611;SDS011;7392;52.078;11.650;2022-10-28T13:02:59;8.13;;;3.20;;
14611;SDS011;7392;52.078;11.650;2022-10-28T13:05:30;5.40;;;2.30;;
14611;SDS011;7392;52.078;11.650;2022-10-28T13:11:03;3.60;;;2.00;;
14611;SDS011;7392;52.078;11.650;2022-10-28T13:13:54;5.27;;;2.50;;
14611;SDS011;7392;52.078;11.650;2022-10-28T13:16:41;8.50;;;2.73;;
14611;SDS011;7392;52.078;11.650;2022-10-28T13:19:30;6.03;;;2.73;;
14611;SDS011;7392;52.078;11.650;2022-10-28T13:25:21;5.30;;;2.40;;
14611;SDS011;7392;52.078;11.650;2022-10-28T13:27:59;7.77;;;2.73;;
14611;SDS011;7392;52.078;11.650;2022-10-28T13:30:27;9.27;;;3.23;;
14611;SDS011;7392;52.078;11.650;2022-10-28T13:33:02;7.30;;;2.00;;
14611;SDS011;7392;52.078;11.650;2022-10-28T13:35:33;6.27;;;2.97;;
14611;SDS011;7392;52.078;11.650;2022-10-28T13:38:03;6.60;;;2.40;;
14611;SDS011;7392;52.078;11.650;2022-10-28T13:46:58;3.43;;;1.77;;
14611;SDS011;7392;52.078;11.650;2022-10-28T13:56:20;6.27;;;2.60;;
14611;SDS011;7392;52.078;11.650;2022-10-28T13:58:56;5.00;;;1.90;;
14611;SDS011;7392;52.078;11.650;2022-10-28T14:01:45;4.67;;;2.10;;
14611;SDS011;7392;52.078;11.650;2022-10-28T14:04:33;5.30;;;2.30;;
14611;SDS011;7392;52.078;11.650;2022-10-28T14:07:18;5.43;;;2.00;;
14611;SDS011;7392;52.078;11.650;2022-10-28T14:09:52;4.50;;;1.90;;
14611;SDS011;7392;52.078;11.650;2022-10-28T14:12:29;5.97;;;2.17;;
14611;SDS011;7392;52.078;11.650;2022-10-28T14:17:51;4.90;;;2.10;;
14611;SDS011;7392;52.078;11.650;2022-10-28T14:20:42;4.87;;;2.00;;
14611;SDS011;7392;52.078;11.650;2022-10-28T14:26:45;3.40;;;1.70;;
14611;SDS011;7392;52.078;11.650;2022-10-28T14:29:56;3.77;;;1.87;;
14611;SDS011;7392;52.078;11.650;2022-10-28T14:32:40;3.93;;;2.00;;
14611;SDS011;7392;52.078;11.650;2022-10-28T14:38:12;3.83;;;2.33;;
14611;SDS011;7392;52.078;11.650;2022-10-28T14:40:55;5.80;;;2.27;;
14611;SDS011;7392;52.078;11.650;2022-10-28T14:43:46;4.10;;;2.10;;
14611;SDS011;7392;52.078;11.650;2022-10-28T14:46:30;4.07;;;1.90;;
14611;SDS011;7392;52.078;11.650;2022-10-28T14:49:16;4.67;;;1.80;;
14611;SDS011;7392;52.078;11.650;2022-10-28T14:51:46;4.00;;;1.70;;
14611;SDS011;7392;52.078;11.650;2022-10-28T14:54:16;3.07;;;1.53;;
14611;SDS011;7392;52.078;11.650;2022-10-28T14:57:06;4.17;;;1.50;;
14611;SDS011;7392;52.078;11.650;2022-10-28T14:59:35;3.97;;;1.60;;
14611;SDS011;7392;52.078;11.650;2022-10-28T15:02:10;2.50;;;1.37;;
14611;SDS011;7392;52.078;11.650;2022-10-28T15:04:44;2.40;;;1.53;;
14611;SDS011;7392;52.078;11.650;2022-10-28T15:07:26;2.60;;;1.30;;
14611;SDS011;7392;52.078;11.650;2022-10-28T15:10:00;1.43;;;1.23;;
14611;SDS011;7392;52.078;11.650;2022-10-28T15:12:41;1.27;;;1.00;;
14611;SDS011;7392;52.078;11.650;2022-10-28T15:15:17;1.33;;;1.10;;
14611;SDS011;7392;52.078;11.650;2022-10-28T15:17:48;1.63;;;1.23;;
14611;SDS011;7392;52.078;11.650;2022-10-28T15:20:20;1.00;;;0.90;;
14611;SDS011;7392;52.078;11.650;2022-10-28T15:22:50;1.17;;;1.00;;
14611;SDS011;7392;52.078;11.650;2022-10-28T15:25:19;1.20;;;1.00;;
14611;SDS011;7392;52.078;11.650;2022-10-28T15:27:49;1.03;;;0.90;;
14611;SDS011;7392;52.078;11.650;2022-10-28T15:30:19;1.17;;;0.83;;
14611;SDS011;7392;52.078;11.650;2022-10-28T15:32:51;1.57;;;0.97;;
14611;SDS011;7392;52.078;11.650;2022-10-28T15:38:23;2.07;;;1.00;;
14611;SDS011;7392;52.078;11.650;2022-10-28T15:40:56;1.40;;;0.80;;
14611;SDS011;7392;52.078;11.650;2022-10-28T15:43:25;1.10;;;0.90;;
14611;SDS011;7392;52.078;11.650;2022-10-28T15:46:06;1.10;;;1.00;;
14611;SDS011;7392;52.078;11.650;2022-10-28T15:48:37;1.10;;;0.90;;
14611;SDS011;7392;52.078;11.650;2022-10-28T15:51:12;1.40;;;1.00;;
14611;SDS011;7392;52.078;11.650;2022-10-28T15:53:40;1.30;;;0.87;;
14611;SDS011;7392;52.078;11.650;2022-10-28T15:56:19;3.27;;;1.10;;
14611;SDS011;7392;52.078;11.650;2022-10-28T16:01:42;1.63;;;1.30;;
14611;SDS011;7392;52.078;11.650;2022-10-28T16:07:10;1.60;;;1.50;;
14611;SDS011;7392;52.078;11.650;2022-10-28T16:09:41;2.13;;;1.37;;